sensor_id;sensor_type;location;lat;lon;timestamp;pressure;altitude;pressure_sealevel;temperature;humidity
35676;BME280;21790;42.668;23.298;2023-07-24T00:00:03;94924.47;;;28.83;39.35
35676;BME280;21790;42.668;23.298;2023-07-24T00:02:56;94921.97;;;28.87;39.47
35676;BME280;21790;42.668;23.298;2023-07-24T00:05:48;94916.34;;;28.80;39.30
35676;BME280;21790;42.668;23.298;2023-07-24T00:08:20;94931.34;;;28.65;39.85
35676;BME280;21790;42.668;23.298;2023-07-24T00:10:55;94928.50;;;28.73;39.52
35676;BME280;21790;42.668;23.298;2023-07-24T00:13:41;94921.09;;;28.69;39.21
35676;BME280;21790;42.668;23.298;2023-07-24T00:16:12;94908.44;;;28.63;39.22
35676;BME280;21790;42.668;23.298;2023-07-24T00:18:40;94925.84;;;28.75;38.98
35676;BME280;21790;42.668;23.298;2023-07-24T00:21:27;94917.34;;;28.59;39.24
35676;BME280;21790;42.668;23.298;2023-07-24T00:24:01;94920.06;;;28.90;39.11
35676;BME280;21790;42.668;23.298;2023-07-24T00:26:29;94922.78;;;28.80;39.05
35676;BME280;21790;42.668;23.298;2023-07-24T00:29:12;94910.78;;;28.89;38.83
35676;BME280;21790;42.668;23.298;2023-07-24T00:31:40;94906.16;;;28.61;39.15
35676;BME280;21790;42.668;23.298;2023-07-24T00:34:08;94913.75;;;28.59;39.45
35676;BME280;21790;42.668;23.298;2023-07-24T00:39:40;94907.72;;;28.55;39.52
35676;BME280;21790;42.668;23.298;2023-07-24T00:42:13;94911.16;;;28.46;39.89
35676;BME280;21790;42.668;23.298;2023-07-24T00:44:51;94916.31;;;28.40;40.19
35676;BME280;21790;42.668;23.298;2023-07-24T00:47:19;94911.47;;;28.25;40.43
35676;BME280;21790;42.668;23.298;2023-07-24T00:49:49;94912.56;;;28.29;39.91
35676;BME280;21790;42.668;23.298;2023-07-24T00:52:24;94917.69;;;28.31;40.77
35676;BME280;21790;42.668;23.298;2023-07-24T00:55:03;94916.31;;;28.40;40.68
35676;BME280;21790;42.668;23.298;2023-07-24T00:57:43;94912.72;;;28.39;40.54
35676;BME280;21790;42.668;23.298;2023-07-24T01:00:24;94894.22;;;28.23;40.77
35676;BME280;21790;42.668;23.298;2023-07-24T01:02:56;94910.22;;;28.43;40.40
35676;BME280;21790;42.668;23.298;2023-07-24T01:05:31;94908.91;;;28.44;39.89
35676;BME280;21790;42.668;23.298;2023-07-24T01:08:04;94882.09;;;28.15;40.31
35676;BME280;21790;42.668;23.298;2023-07-24T01:10:46;94899.91;;;28.23;40.31
35676;BME280;21790;42.668;23.298;2023-07-24T01:13:42;94909.38;;;28.10;40.74
35676;BME280;21790;42.668;23.298;2023-07-24T01:18:55;94897.53;;;27.81;41.24
35676;BME280;21790;42.668;23.298;2023-07-24T01:21:51;94901.31;;;27.92;41.10
35676;BME280;21790;42.668;23.298;2023-07-24T01:27:20;94896.19;;;27.98;40.71
35676;BME280;21790;42.668;23.298;2023-07-24T01:29:55;94877.25;;;27.93;40.29
35676;BME280;21790;42.668;23.298;2023-07-24T01:32:24;94892.72;;;28.07;39.88
35676;BME280;21790;42.668;23.298;2023-07-24T01:35:08;94878.63;;;27.76;40.06
35676;BME280;21790;42.668;23.298;2023-07-24T01:37:46;94872.16;;;27.83;39.51
35676;BME280;21790;42.668;23.298;2023-07-24T01:40:32;94891.06;;;27.88;39.22
35676;BME280;21790;42.668;23.298;2023-07-24T01:45:41;94913.84;;;27.73;39.68
35676;BME280;21790;42.668;23.298;2023-07-24T01:48:10;94907.03;;;27.69;39.50
35676;BME280;21790;42.668;23.298;2023-07-24T01:50:43;94917.59;;;27.83;39.46
35676;BME280;21790;42.668;23.298;2023-07-24T01:53:10;94914.03;;;27.75;38.83
35676;BME280;21790;42.668;23.298;2023-07-24T01:55:51;94920.63;;;27.85;38.78
35676;BME280;21790;42.668;23.298;2023-07-24T01:58:49;94919.72;;;27.60;39.61
35676;BME280;21790;42.668;23.298;2023-07-24T02:01:20;94914.25;;;27.55;39.94
35676;BME280;21790;42.668;23.298;2023-07-24T02:04:01;94906.81;;;27.44;39.79
35676;BME280;21790;42.668;23.298;2023-07-24T02:06:34;94906.25;;;27.61;39.59
35676;BME280;21790;42.668;23.298;2023-07-24T02:09:20;94900.03;;;27.62;39.55
35676;BME280;21790;42.668;23.298;2023-07-24T02:11:49;94883.19;;;27.57;40.88
35676;BME280;21790;42.668;23.298;2023-07-24T02:14:25;94887.91;;;27.62;40.45
35676;BME280;21790;42.668;23.298;2023-07-24T02:16:53;94901.53;;;27.63;40.65
35676;BME280;21790;42.668;23.298;2023-07-24T02:19:27;94904.19;;;27.76;40.40
35676;BME280;21790;42.668;23.298;2023-07-24T02:21:56;94903.22;;;27.66;40.18
35676;BME280;21790;42.668;23.298;2023-07-24T02:24:25;94893.41;;;27.52;40.78
35676;BME280;21790;42.668;23.298;2023-07-24T02:27:04;94901.19;;;27.52;40.86
35676;BME280;21790;42.668;23.298;2023-07-24T02:29:51;94902.31;;;27.56;41.04
35676;BME280;21790;42.668;23.298;2023-07-24T02:32:23;94893.41;;;27.52;41.00
35676;BME280;21790;42.668;23.298;2023-07-24T02:37:36;94885.28;;;27.56;40.94
35676;BME280;21790;42.668;23.298;2023-07-24T02:40:03;94887.94;;;27.54;41.18
35676;BME280;21790;42.668;23.298;2023-07-24T02:42:30;94904.19;;;27.69;40.60
35676;BME280;21790;42.668;23.298;2023-07-24T02:45:00;94893.03;;;27.63;40.44
35676;BME280;21790;42.668;23.298;2023-07-24T02:47:31;94901.34;;;27.61;40.61
35676;BME280;21790;42.668;23.298;2023-07-24T02:50:05;94886.41;;;27.53;40.96
35676;BME280;21790;42.668;23.298;2023-07-24T02:52:34;94891.34;;;27.53;40.82
35676;BME280;21790;42.668;23.298;2023-07-24T02:55:16;94896.06;;;27.65;40.82
35676;BME280;21790;42.668;23.298;2023-07-24T02:57:54;94899.47;;;27.41;41.27
35676;BME280;21790;42.668;23.298;2023-07-24T03:00:22;94887.75;;;27.52;40.93
35676;BME280;21790;42.668;23.298;2023-07-24T03:03:09;94894.34;;;27.47;40.99
35676;BME280;21790;42.668;23.298;2023-07-24T03:05:38;94888.50;;;27.30;41.15
35676;BME280;21790;42.668;23.298;2023-07-24T03:08:08;94881.09;;;27.34;41.34
35676;BME280;21790;42.668;23.298;2023-07-24T03:10:43;94887.16;;;27.31;41.28
35676;BME280;21790;42.668;23.298;2023-07-24T03:13:14;94884.91;;;27.22;41.13
35676;BME280;21790;42.668;23.298;2023-07-24T03:16:05;94896.06;;;27.20;41.75
35676;BME280;21790;42.668;23.298;2023-07-24T03:18:52;94889.81;;;27.29;41.55
35676;BME280;21790;42.668;23.298;2023-07-24T03:21:22;94880.72;;;27.23;41.37
35676;BME280;21790;42.668;23.298;2023-07-24T03:23:50;94884.53;;;27.25;41.05
35676;BME280;21790;42.668;23.298;2023-07-24T03:26:28;94893.97;;;27.28;41.36
35676;BME280;21790;42.668;23.298;2023-07-24T03:29:00;94870.16;;;27.08;41.26
35676;BME280;21790;42.668;23.298;2023-07-24T03:31:38;94895.13;;;27.25;41.16
35676;BME280;21790;42.668;23.298;2023-07-24T03:34:08;94874.31;;;26.99;41.39
35676;BME280;21790;42.668;23.298;2023-07-24T03:36:59;94903.25;;;27.21;41.41
35676;BME280;21790;42.668;23.298;2023-07-24T03:39:32;94897.00;;;27.22;41.72
35676;BME280;21790;42.668;23.298;2023-07-24T03:42:35;94884.50;;;27.18;41.54
35676;BME280;21790;42.668;23.298;2023-07-24T03:45:15;94894.34;;;27.17;40.94
35676;BME280;21790;42.668;23.298;2023-07-24T03:47:48;94884.13;;;26.91;41.04
35676;BME280;21790;42.668;23.298;2023-07-24T03:50:17;94901.13;;;26.91;41.59
35676;BME280;21790;42.668;23.298;2023-07-24T03:52:46;94888.84;;;26.96;41.33
35676;BME280;21790;42.668;23.298;2023-07-24T03:55:24;94900.41;;;27.13;41.56
35676;BME280;21790;42.668;23.298;2023-07-24T03:57:51;94903.44;;;27.15;41.48
35676;BME280;21790;42.668;23.298;2023-07-24T04:00:20;94896.81;;;27.13;41.62
35676;BME280;21790;42.668;23.298;2023-07-24T04:02:49;94891.13;;;27.28;41.26
35676;BME280;21790;42.668;23.298;2023-07-24T04:05:24;94907.41;;;27.50;41.12
35676;BME280;21790;42.668;23.298;2023-07-24T04:07:59;94909.47;;;27.49;41.02
35676;BME280;21790;42.668;23.298;2023-07-24T04:13:53;94918.75;;;27.42;41.61
35676;BME280;21790;42.668;23.298;2023-07-24T04:16:30;94923.88;;;27.36;41.38
35676;BME280;21790;42.668;23.298;2023-07-24T04:19:03;94921.97;;;27.39;41.51
35676;BME280;21790;42.668;23.298;2023-07-24T04:21:42;94906.09;;;27.21;41.88
35676;BME280;21790;42.668;23.298;2023-07-24T04:24:37;94920.44;;;27.45;41.39
35676;BME280;21790;42.668;23.298;2023-07-24T04:27:05;94913.66;;;27.26;41.46
35676;BME280;21790;42.668;23.298;2023-07-24T04:29:43;94907.22;;;27.18;41.95
35676;BME280;21790;42.668;23.298;2023-07-24T04:32:12;94910.63;;;27.24;42.12
35676;BME280;21790;42.668;23.298;2023-07-24T04:37:43;94908.38;;;27.60;41.65
35676;BME280;21790;42.668;23.298;2023-07-24T04:40:14;94911.00;;;27.81;40.79
35676;BME280;21790;42.668;23.298;2023-07-24T04:42:47;94908.31;;;27.91;40.61
35676;BME280;21790;42.668;23.298;2023-07-24T04:48:31;94909.81;;;27.92;40.14
35676;BME280;21790;42.668;23.298;2023-07-24T04:51:00;94913.19;;;28.13;39.88
35676;BME280;21790;42.668;23.298;2023-07-24T04:53:28;94915.25;;;28.20;39.58
35676;BME280;21790;42.668;23.298;2023-07-24T04:56:12;94926.34;;;28.41;39.33
35676;BME280;21790;42.668;23.298;2023-07-24T04:58:46;94922.50;;;28.53;38.90
35676;BME280;21790;42.668;23.298;2023-07-24T05:01:21;94923.69;;;28.83;38.90
35676;BME280;21790;42.668;23.298;2023-07-24T05:07:30;94930.13;;;28.91;37.95
35676;BME280;21790;42.668;23.298;2023-07-24T05:10:14;94929.34;;;28.90;37.66
35676;BME280;21790;42.668;23.298;2023-07-24T05:12:59;94923.78;;;29.00;37.56
35676;BME280;21790;42.668;23.298;2023-07-24T05:15:27;94914.00;;;29.18;37.48
35676;BME280;21790;42.668;23.298;2023-07-24T05:18:17;94925.81;;;29.39;35.76
35676;BME280;21790;42.668;23.298;2023-07-24T05:20:55;94914.72;;;29.51;35.35
35676;BME280;21790;42.668;23.298;2023-07-24T05:23:22;94914.72;;;29.68;35.40
35676;BME280;21790;42.668;23.298;2023-07-24T05:26:20;94925.00;;;29.88;35.08
35676;BME280;21790;42.668;23.298;2023-07-24T05:29:20;94919.59;;;30.00;34.66
35676;BME280;21790;42.668;23.298;2023-07-24T05:32:08;94924.22;;;29.21;35.69
35676;BME280;21790;42.668;23.298;2023-07-24T05:34:38;94918.66;;;28.98;36.34
35676;BME280;21790;42.668;23.298;2023-07-24T05:37:25;94915.66;;;29.21;35.85
35676;BME280;21790;42.668;23.298;2023-07-24T05:40:02;94900.03;;;29.05;35.88
35676;BME280;21790;42.668;23.298;2023-07-24T05:42:56;94912.59;;;29.27;36.13
35676;BME280;21790;42.668;23.298;2023-07-24T05:45:29;94902.97;;;29.47;36.39
35676;BME280;21790;42.668;23.298;2023-07-24T05:48:20;94908.72;;;29.81;35.92
35676;BME280;21790;42.668;23.298;2023-07-24T05:54:23;94897.69;;;30.20;34.96
35676;BME280;21790;42.668;23.298;2023-07-24T05:56:52;94894.66;;;30.18;34.88
35676;BME280;21790;42.668;23.298;2023-07-24T06:02:49;94902.56;;;30.27;34.22
35676;BME280;21790;42.668;23.298;2023-07-24T06:05:26;94888.78;;;30.50;34.48
35676;BME280;21790;42.668;23.298;2023-07-24T06:08:30;94894.88;;;30.64;34.18
35676;BME280;21790;42.668;23.298;2023-07-24T06:11:00;94873.78;;;30.32;33.88
35676;BME280;21790;42.668;23.298;2023-07-24T06:13:42;94877.53;;;30.35;34.39
35676;BME280;21790;42.668;23.298;2023-07-24T06:19:55;94895.16;;;30.85;33.57
35676;BME280;21790;42.668;23.298;2023-07-24T06:22:45;94885.53;;;31.07;32.40
35676;BME280;21790;42.668;23.298;2023-07-24T06:25:37;94876.38;;;30.82;33.40
35676;BME280;21790;42.668;23.298;2023-07-24T06:28:26;94893.38;;;31.16;33.08
35676;BME280;21790;42.668;23.298;2023-07-24T06:35:01;94896.06;;;31.51;32.57
35676;BME280;21790;42.668;23.298;2023-07-24T06:37:35;94894.88;;;31.54;31.90
35676;BME280;21790;42.668;23.298;2023-07-24T06:40:26;94891.88;;;31.15;32.37
35676;BME280;21790;42.668;23.298;2023-07-24T06:43:01;94889.28;;;31.10;33.09
35676;BME280;21790;42.668;23.298;2023-07-24T06:45:51;94881.06;;;31.14;33.69
35676;BME280;21790;42.668;23.298;2023-07-24T06:48:36;94882.19;;;31.38;33.56
35676;BME280;21790;42.668;23.298;2023-07-24T06:51:10;94874.69;;;31.42;33.46
35676;BME280;21790;42.668;23.298;2023-07-24T06:53:37;94886.97;;;31.62;33.29
35676;BME280;21790;42.668;23.298;2023-07-24T06:56:13;94891.22;;;31.80;33.64
35676;BME280;21790;42.668;23.298;2023-07-24T06:58:42;94875.41;;;31.79;32.96
35676;BME280;21790;42.668;23.298;2023-07-24T07:01:30;94866.38;;;31.83;32.85
35676;BME280;21790;42.668;23.298;2023-07-24T07:04:06;94881.00;;;32.06;32.36
35676;BME280;21790;42.668;23.298;2023-07-24T07:06:46;94888.66;;;31.84;33.38
35676;BME280;21790;42.668;23.298;2023-07-24T07:09:31;94885.84;;;32.23;33.32
35676;BME280;21790;42.668;23.298;2023-07-24T07:12:25;94898.94;;;32.45;33.21
35676;BME280;21790;42.668;23.298;2023-07-24T07:15:19;94904.66;;;32.55;32.24
35676;BME280;21790;42.668;23.298;2023-07-24T07:17:54;94887.81;;;32.39;33.19
35676;BME280;21790;42.668;23.298;2023-07-24T07:20:50;94895.47;;;32.56;32.97
35676;BME280;21790;42.668;23.298;2023-07-24T07:24:07;94889.13;;;32.58;32.84
35676;BME280;21790;42.668;23.298;2023-07-24T07:27:09;94886.59;;;32.62;32.13
35676;BME280;21790;42.668;23.298;2023-07-24T07:30:06;94869.56;;;32.35;33.01
35676;BME280;21790;42.668;23.298;2023-07-24T07:41:09;94870.13;;;32.62;33.09
35676;BME280;21790;42.668;23.298;2023-07-24T07:43:45;94879.94;;;32.78;32.52
35676;BME280;21790;42.668;23.298;2023-07-24T07:46:18;94878.44;;;32.77;31.83
35676;BME280;21790;42.668;23.298;2023-07-24T07:49:25;94869.09;;;32.58;32.13
35676;BME280;21790;42.668;23.298;2023-07-24T07:51:53;94876.97;;;32.19;32.71
35676;BME280;21790;42.668;23.298;2023-07-24T07:54:48;94876.47;;;32.03;33.15
35676;BME280;21790;42.668;23.298;2023-07-24T07:57:17;94861.84;;;31.70;33.29
35676;BME280;21790;42.668;23.298;2023-07-24T08:00:03;94875.28;;;32.35;32.86
35676;BME280;21790;42.668;23.298;2023-07-24T08:02:35;94865.91;;;32.63;32.66
35676;BME280;21790;42.668;23.298;2023-07-24T08:05:08;94863.50;;;32.89;32.36
35676;BME280;21790;42.668;23.298;2023-07-24T08:07:38;94873.78;;;33.13;31.73
35676;BME280;21790;42.668;23.298;2023-07-24T08:10:09;94874.84;;;33.27;31.19
35676;BME280;21790;42.668;23.298;2023-07-24T08:12:36;94874.91;;;33.39;31.06
35676;BME280;21790;42.668;23.298;2023-07-24T08:15:04;94872.44;;;33.54;31.46
35676;BME280;21790;42.668;23.298;2023-07-24T08:17:33;94867.84;;;33.71;30.76
35676;BME280;21790;42.668;23.298;2023-07-24T08:20:15;94863.47;;;33.91;31.08
35676;BME280;21790;42.668;23.298;2023-07-24T08:22:44;94854.72;;;33.89;30.09
35676;BME280;21790;42.668;23.298;2023-07-24T08:25:21;94854.59;;;34.08;29.98
35676;BME280;21790;42.668;23.298;2023-07-24T08:27:52;94848.97;;;34.10;30.10
35676;BME280;21790;42.668;23.298;2023-07-24T08:30:24;94856.81;;;34.19;30.30
35676;BME280;21790;42.668;23.298;2023-07-24T08:32:55;94842.72;;;34.23;29.73
35676;BME280;21790;42.668;23.298;2023-07-24T08:35:25;94836.50;;;34.27;29.89
35676;BME280;21790;42.668;23.298;2023-07-24T08:37:52;94836.91;;;34.33;29.13
35676;BME280;21790;42.668;23.298;2023-07-24T08:47:47;94838.25;;;34.65;29.00
35676;BME280;21790;42.668;23.298;2023-07-24T08:50:27;94829.78;;;34.67;29.48
35676;BME280;21790;42.668;23.298;2023-07-24T08:53:16;94820.06;;;34.72;28.91
35676;BME280;21790;42.668;23.298;2023-07-24T08:56:02;94830.09;;;34.82;29.13
35676;BME280;21790;42.668;23.298;2023-07-24T08:58:45;94810.63;;;34.93;29.21
35676;BME280;21790;42.668;23.298;2023-07-24T09:01:27;94835.09;;;35.05;28.49
35676;BME280;21790;42.668;23.298;2023-07-24T09:04:20;94827.72;;;35.14;28.86
35676;BME280;21790;42.668;23.298;2023-07-24T09:07:11;94826.13;;;35.11;27.40
35676;BME280;21790;42.668;23.298;2023-07-24T09:10:38;94817.34;;;34.97;27.76
35676;BME280;21790;42.668;23.298;2023-07-24T09:13:18;94817.88;;;35.05;28.37
35676;BME280;21790;42.668;23.298;2023-07-24T09:16:00;94816.00;;;35.10;27.93
35676;BME280;21790;42.668;23.298;2023-07-24T09:21:49;94809.91;;;35.27;28.04
35676;BME280;21790;42.668;23.298;2023-07-24T09:24:57;94804.03;;;35.48;28.26
35676;BME280;21790;42.668;23.298;2023-07-24T09:27:45;94816.28;;;35.72;27.66
35676;BME280;21790;42.668;23.298;2023-07-24T09:30:41;94800.41;;;35.48;27.52
35676;BME280;21790;42.668;23.298;2023-07-24T09:33:42;94798.13;;;35.70;27.82
35676;BME280;21790;42.668;23.298;2023-07-24T09:36:37;94797.75;;;35.75;27.58
35676;BME280;21790;42.668;23.298;2023-07-24T09:39:25;94789.72;;;35.85;27.40
35676;BME280;21790;42.668;23.298;2023-07-24T09:42:03;94792.06;;;36.00;26.94
35676;BME280;21790;42.668;23.298;2023-07-24T09:44:34;94775.53;;;36.01;26.93
35676;BME280;21790;42.668;23.298;2023-07-24T09:50:32;94757.56;;;36.00;26.36
35676;BME280;21790;42.668;23.298;2023-07-24T09:53:00;94756.19;;;35.90;26.06
35676;BME280;21790;42.668;23.298;2023-07-24T09:58:22;94747.25;;;36.09;26.30
35676;BME280;21790;42.668;23.298;2023-07-24T10:00:51;94751.69;;;36.24;27.04
35676;BME280;21790;42.668;23.298;2023-07-24T10:03:25;94747.78;;;36.31;26.53
35676;BME280;21790;42.668;23.298;2023-07-24T10:05:55;94744.50;;;36.11;25.38
35676;BME280;21790;42.668;23.298;2023-07-24T10:08:43;94742.19;;;35.84;25.67
35676;BME280;21790;42.668;23.298;2023-07-24T10:11:42;94750.16;;;35.97;24.85
35676;BME280;21790;42.668;23.298;2023-07-24T10:17:43;94738.47;;;36.19;24.84
35676;BME280;21790;42.668;23.298;2023-07-24T10:20:44;94727.91;;;35.98;25.02
35676;BME280;21790;42.668;23.298;2023-07-24T10:23:19;94725.47;;;36.18;24.83
35676;BME280;21790;42.668;23.298;2023-07-24T10:25:50;94728.69;;;36.24;24.97
35676;BME280;21790;42.668;23.298;2023-07-24T10:28:18;94730.22;;;36.13;24.73
35676;BME280;21790;42.668;23.298;2023-07-24T10:31:00;94723.44;;;36.20;24.99
35676;BME280;21790;42.668;23.298;2023-07-24T10:33:30;94723.97;;;36.17;25.05
35676;BME280;21790;42.668;23.298;2023-07-24T10:36:32;94727.88;;;36.35;25.33
35676;BME280;21790;42.668;23.298;2023-07-24T10:39:02;94720.72;;;36.11;25.70
35676;BME280;21790;42.668;23.298;2023-07-24T10:41:38;94720.19;;;36.14;25.96
35676;BME280;21790;42.668;23.298;2023-07-24T10:44:10;94715.81;;;36.13;26.26
35676;BME280;21790;42.668;23.298;2023-07-24T10:46:42;94709.59;;;36.17;26.39
35676;BME280;21790;42.668;23.298;2023-07-24T10:49:11;94709.22;;;36.11;26.19
35676;BME280;21790;42.668;23.298;2023-07-24T10:51:55;94706.41;;;36.24;26.24
35676;BME280;21790;42.668;23.298;2023-07-24T10:54:22;94686.09;;;36.08;26.22
35676;BME280;21790;42.668;23.298;2023-07-24T11:00:35;94690.13;;;36.03;26.23
35676;BME280;21790;42.668;23.298;2023-07-24T11:03:12;94701.63;;;36.29;26.52
35676;BME280;21790;42.668;23.298;2023-07-24T11:05:51;94693.66;;;36.41;25.76
35676;BME280;21790;42.668;23.298;2023-07-24T11:08:19;94694.63;;;36.32;25.32
35676;BME280;21790;42.668;23.298;2023-07-24T11:10:56;94680.03;;;36.55;25.18
35676;BME280;21790;42.668;23.298;2023-07-24T11:13:30;94688.19;;;36.72;25.41
35676;BME280;21790;42.668;23.298;2023-07-24T11:16:04;94683.97;;;36.87;25.57
35676;BME280;21790;42.668;23.298;2023-07-24T11:18:30;94667.31;;;36.85;25.53
35676;BME280;21790;42.668;23.298;2023-07-24T11:20:56;94674.56;;;36.73;24.97
35676;BME280;21790;42.668;23.298;2023-07-24T11:23:25;94675.22;;;36.71;25.38
35676;BME280;21790;42.668;23.298;2023-07-24T11:25:52;94673.38;;;36.64;24.71
35676;BME280;21790;42.668;23.298;2023-07-24T11:28:18;94665.06;;;36.70;25.03
35676;BME280;21790;42.668;23.298;2023-07-24T11:30:45;94672.84;;;36.68;25.43
35676;BME280;21790;42.668;23.298;2023-07-24T11:33:14;94660.44;;;36.52;25.21
35676;BME280;21790;42.668;23.298;2023-07-24T11:35:41;94649.13;;;36.56;25.37
35676;BME280;21790;42.668;23.298;2023-07-24T11:38:11;94661.75;;;36.62;25.82
35676;BME280;21790;42.668;23.298;2023-07-24T11:40:43;94659.06;;;36.66;25.30
35676;BME280;21790;42.668;23.298;2023-07-24T11:43:22;94657.13;;;36.57;25.80
35676;BME280;21790;42.668;23.298;2023-07-24T11:45:49;94647.41;;;36.51;26.22
35676;BME280;21790;42.668;23.298;2023-07-24T11:48:18;94634.41;;;36.36;26.98
35676;BME280;21790;42.668;23.298;2023-07-24T11:50:46;94644.66;;;36.53;26.82
35676;BME280;21790;42.668;23.298;2023-07-24T11:55:45;94651.91;;;36.54;26.68
35676;BME280;21790;42.668;23.298;2023-07-24T11:58:15;94638.69;;;36.48;27.37
35676;BME280;21790;42.668;23.298;2023-07-24T12:00:41;94639.94;;;36.32;27.02
35676;BME280;21790;42.668;23.298;2023-07-24T12:03:07;94635.16;;;36.50;26.73
35676;BME280;21790;42.668;23.298;2023-07-24T12:05:43;94632.09;;;36.60;26.71
35676;BME280;21790;42.668;23.298;2023-07-24T12:08:10;94642.69;;;36.69;26.78
35676;BME280;21790;42.668;23.298;2023-07-24T12:10:37;94640.75;;;36.73;26.61
35676;BME280;21790;42.668;23.298;2023-07-24T12:13:03;94621.00;;;36.54;26.69
35676;BME280;21790;42.668;23.298;2023-07-24T12:15:29;94626.97;;;36.72;25.45
35676;BME280;21790;42.668;23.298;2023-07-24T12:17:55;94618.78;;;36.80;25.17
35676;BME280;21790;42.668;23.298;2023-07-24T12:20:22;94632.56;;;36.81;25.48
35676;BME280;21790;42.668;23.298;2023-07-24T12:22:48;94632.53;;;36.68;25.74
35676;BME280;21790;42.668;23.298;2023-07-24T12:25:15;94625.41;;;36.69;25.47
35676;BME280;21790;42.668;23.298;2023-07-24T12:27:41;94631.22;;;36.57;25.21
35676;BME280;21790;42.668;23.298;2023-07-24T12:30:09;94625.38;;;36.82;25.36
35676;BME280;21790;42.668;23.298;2023-07-24T12:32:35;94615.28;;;36.81;25.62
35676;BME280;21790;42.668;23.298;2023-07-24T12:35:02;94611.63;;;36.81;25.89
35676;BME280;21790;42.668;23.298;2023-07-24T12:37:28;94619.00;;;36.98;26.33
35676;BME280;21790;42.668;23.298;2023-07-24T12:39:55;94618.75;;;36.94;26.06
35676;BME280;21790;42.668;23.298;2023-07-24T12:42:21;94608.22;;;36.98;26.12
35676;BME280;21790;42.668;23.298;2023-07-24T12:44:46;94595.31;;;36.85;25.43
35676;BME280;21790;42.668;23.298;2023-07-24T12:47:12;94597.13;;;36.79;25.35
35676;BME280;21790;42.668;23.298;2023-07-24T12:49:38;94605.13;;;36.80;25.61
35676;BME280;21790;42.668;23.298;2023-07-24T12:52:04;94610.69;;;36.76;25.10
35676;BME280;21790;42.668;23.298;2023-07-24T12:54:30;94609.06;;;36.73;25.34
35676;BME280;21790;42.668;23.298;2023-07-24T12:56:56;94599.69;;;36.73;24.98
35676;BME280;21790;42.668;23.298;2023-07-24T12:59:22;94595.13;;;36.81;24.95
35676;BME280;21790;42.668;23.298;2023-07-24T13:01:48;94592.75;;;36.78;25.23
35676;BME280;21790;42.668;23.298;2023-07-24T13:04:14;94598.19;;;36.72;25.41
35676;BME280;21790;42.668;23.298;2023-07-24T13:06:39;94578.03;;;36.72;25.27
35676;BME280;21790;42.668;23.298;2023-07-24T13:09:05;94593.06;;;36.84;25.19
35676;BME280;21790;42.668;23.298;2023-07-24T13:11:31;94589.66;;;36.87;24.97
35676;BME280;21790;42.668;23.298;2023-07-24T13:13:57;94567.69;;;36.80;25.23
35676;BME280;21790;42.668;23.298;2023-07-24T13:16:23;94573.78;;;36.86;25.46
35676;BME280;21790;42.668;23.298;2023-07-24T13:18:49;94579.00;;;36.76;25.09
35676;BME280;21790;42.668;23.298;2023-07-24T13:21:15;94571.22;;;36.93;25.05
35676;BME280;21790;42.668;23.298;2023-07-24T13:23:42;94573.22;;;37.04;24.97
35676;BME280;21790;42.668;23.298;2023-07-24T13:26:08;94561.88;;;37.08;24.95
35676;BME280;21790;42.668;23.298;2023-07-24T13:28:36;94580.91;;;37.13;24.39
35676;BME280;21790;42.668;23.298;2023-07-24T13:31:24;94574.81;;;37.20;23.39
35676;BME280;21790;42.668;23.298;2023-07-24T13:33:53;94560.00;;;36.99;22.67
35676;BME280;21790;42.668;23.298;2023-07-24T13:36:19;94564.56;;;37.04;22.63
35676;BME280;21790;42.668;23.298;2023-07-24T13:38:44;94557.41;;;37.05;21.80
35676;BME280;21790;42.668;23.298;2023-07-24T13:41:10;94559.13;;;37.10;20.97
35676;BME280;21790;42.668;23.298;2023-07-24T13:43:35;94549.00;;;37.09;21.25
35676;BME280;21790;42.668;23.298;2023-07-24T13:46:01;94542.06;;;37.14;20.61
35676;BME280;21790;42.668;23.298;2023-07-24T13:48:30;94547.47;;;37.21;20.43
35676;BME280;21790;42.668;23.298;2023-07-24T13:50:55;94540.94;;;37.21;20.13
35676;BME280;21790;42.668;23.298;2023-07-24T13:53:21;94526.28;;;37.15;20.31
35676;BME280;21790;42.668;23.298;2023-07-24T13:55:47;94536.19;;;37.12;20.56
35676;BME280;21790;42.668;23.298;2023-07-24T13:58:13;94525.94;;;36.95;21.58
35676;BME280;21790;42.668;23.298;2023-07-24T14:00:39;94550.47;;;37.10;21.57
35676;BME280;21790;42.668;23.298;2023-07-24T14:03:04;94540.91;;;36.92;21.91
35676;BME280;21790;42.668;23.298;2023-07-24T14:05:30;94534.09;;;36.85;21.75
35676;BME280;21790;42.668;23.298;2023-07-24T14:07:55;94550.59;;;36.98;21.42
35676;BME280;21790;42.668;23.298;2023-07-24T14:10:21;94546.75;;;36.94;21.79
35676;BME280;21790;42.668;23.298;2023-07-24T14:12:47;94550.63;;;36.84;21.14
35676;BME280;21790;42.668;23.298;2023-07-24T14:15:12;94545.19;;;36.77;21.28
35676;BME280;21790;42.668;23.298;2023-07-24T14:17:39;94542.41;;;36.79;21.07
35676;BME280;21790;42.668;23.298;2023-07-24T14:20:07;94537.72;;;36.85;21.34
35676;BME280;21790;42.668;23.298;2023-07-24T14:22:35;94544.66;;;36.80;20.29
35676;BME280;21790;42.668;23.298;2023-07-24T14:25:01;94535.28;;;36.66;20.81
35676;BME280;21790;42.668;23.298;2023-07-24T14:27:27;94542.84;;;36.73;21.10
35676;BME280;21790;42.668;23.298;2023-07-24T14:29:53;94523.22;;;36.70;20.47
35676;BME280;21790;42.668;23.298;2023-07-24T14:32:19;94536.22;;;36.84;20.55
35676;BME280;21790;42.668;23.298;2023-07-24T14:34:51;94537.50;;;36.81;20.11
35676;BME280;21790;42.668;23.298;2023-07-24T14:37:16;94531.13;;;36.69;20.00
35676;BME280;21790;42.668;23.298;2023-07-24T14:39:44;94535.38;;;36.68;20.09
35676;BME280;21790;42.668;23.298;2023-07-24T14:42:10;94539.31;;;36.61;20.41
35676;BME280;21790;42.668;23.298;2023-07-24T14:44:37;94538.81;;;36.65;20.29
35676;BME280;21790;42.668;23.298;2023-07-24T14:47:05;94517.78;;;36.62;20.23